Terminal Aerodrome Forecast
Issued by NWS

Home | Current Version | Previous Version | Text Only | Print | Product List | Glossary On
Versions: 1 2 3 4 5 6 7 8 9 10 11 12 13 14 15
750
FTUS44 KCRP 162016 AAA
TAFALI
TAF AMD
KALI 162016Z 1620/1718 36017G24KT P6SM SCT025 OVC035
      TEMPO 1620/1624 5SM -FZRAPL BKN025 OVC035
     FM170200 01012KT P6SM OVC040
     FM171100 01010KT P6SM BKN100 OVC250=

USA.gov is the U.S. government's official web portal to all federal, state and local government web resources and services.